sensor_id;sensor_type;location;lat;lon;timestamp;temperature;humidity
19928;DHT22;10126;50.876;4.470;2022-09-09T00:00:18;15.30;99.90
19928;DHT22;10126;50.876;4.470;2022-09-09T00:02:27;15.30;99.90
19928;DHT22;10126;50.876;4.470;2022-09-09T00:04:33;15.40;99.90
19928;DHT22;10126;50.876;4.470;2022-09-09T00:06:50;15.50;99.90
19928;DHT22;10126;50.876;4.470;2022-09-09T00:10:59;15.40;99.90
19928;DHT22;10126;50.876;4.470;2022-09-09T00:15:14;15.30;99.90
19928;DHT22;10126;50.876;4.470;2022-09-09T00:17:43;15.30;99.90
19928;DHT22;10126;50.876;4.470;2022-09-09T00:20:02;15.30;99.90
19928;DHT22;10126;50.876;4.470;2022-09-09T00:22:19;15.20;99.90
19928;DHT22;10126;50.876;4.470;2022-09-09T00:24:43;15.10;99.90
19928;DHT22;10126;50.876;4.470;2022-09-09T00:26:55;15.10;99.90
19928;DHT22;10126;50.876;4.470;2022-09-09T00:29:28;15.10;99.90
19928;DHT22;10126;50.876;4.470;2022-09-09T00:31:33;15.20;99.90
19928;DHT22;10126;50.876;4.470;2022-09-09T00:33:34;15.10;99.90
19928;DHT22;10126;50.876;4.470;2022-09-09T00:35:42;15.10;99.90
19928;DHT22;10126;50.876;4.470;2022-09-09T00:37:46;15.10;99.90
19928;DHT22;10126;50.876;4.470;2022-09-09T00:39:50;15.20;99.90
19928;DHT22;10126;50.876;4.470;2022-09-09T00:44:31;15.00;99.90
19928;DHT22;10126;50.876;4.470;2022-09-09T00:46:46;15.10;99.90
19928;DHT22;10126;50.876;4.470;2022-09-09T00:56:18;15.40;99.90
19928;DHT22;10126;50.876;4.470;2022-09-09T00:58:21;15.30;99.90
19928;DHT22;10126;50.876;4.470;2022-09-09T01:04:36;15.40;99.90
19928;DHT22;10126;50.876;4.470;2022-09-09T01:06:37;15.40;99.90
19928;DHT22;10126;50.876;4.470;2022-09-09T01:10:52;15.30;99.90
19928;DHT22;10126;50.876;4.470;2022-09-09T01:12:56;15.40;99.90
19928;DHT22;10126;50.876;4.470;2022-09-09T01:15:12;15.60;99.90
19928;DHT22;10126;50.876;4.470;2022-09-09T01:17:36;15.60;99.90
19928;DHT22;10126;50.876;4.470;2022-09-09T01:22:06;15.60;99.90
19928;DHT22;10126;50.876;4.470;2022-09-09T01:24:35;15.70;99.90
19928;DHT22;10126;50.876;4.470;2022-09-09T01:26:44;15.60;99.90
19928;DHT22;10126;50.876;4.470;2022-09-09T01:28:47;15.60;99.90
19928;DHT22;10126;50.876;4.470;2022-09-09T01:30:49;15.70;99.90
19928;DHT22;10126;50.876;4.470;2022-09-09T01:32:55;15.70;99.90
19928;DHT22;10126;50.876;4.470;2022-09-09T01:34:58;15.60;99.90
19928;DHT22;10126;50.876;4.470;2022-09-09T01:37:09;15.60;99.90
19928;DHT22;10126;50.876;4.470;2022-09-09T01:39:11;15.60;99.90
19928;DHT22;10126;50.876;4.470;2022-09-09T01:41:12;15.60;99.90
19928;DHT22;10126;50.876;4.470;2022-09-09T01:43:13;15.60;99.90
19928;DHT22;10126;50.876;4.470;2022-09-09T01:45:14;15.60;99.90
19928;DHT22;10126;50.876;4.470;2022-09-09T01:47:15;15.50;99.90
19928;DHT22;10126;50.876;4.470;2022-09-09T01:49:16;15.50;99.90
19928;DHT22;10126;50.876;4.470;2022-09-09T01:51:17;15.50;99.90
19928;DHT22;10126;50.876;4.470;2022-09-09T01:53:19;15.50;99.90
19928;DHT22;10126;50.876;4.470;2022-09-09T01:55:39;15.50;99.90
19928;DHT22;10126;50.876;4.470;2022-09-09T01:57:47;15.40;99.90
19928;DHT22;10126;50.876;4.470;2022-09-09T02:02:35;15.30;99.90
19928;DHT22;10126;50.876;4.470;2022-09-09T02:04:42;15.20;99.90
19928;DHT22;10126;50.876;4.470;2022-09-09T02:06:44;15.30;99.90
19928;DHT22;10126;50.876;4.470;2022-09-09T02:08:49;15.40;99.90
19928;DHT22;10126;50.876;4.470;2022-09-09T02:13:08;15.40;99.90
19928;DHT22;10126;50.876;4.470;2022-09-09T02:15:26;15.40;99.90
19928;DHT22;10126;50.876;4.470;2022-09-09T02:17:31;15.30;99.90
19928;DHT22;10126;50.876;4.470;2022-09-09T02:19:41;15.30;99.90
19928;DHT22;10126;50.876;4.470;2022-09-09T02:21:44;15.30;99.90
19928;DHT22;10126;50.876;4.470;2022-09-09T02:23:47;15.40;99.90
19928;DHT22;10126;50.876;4.470;2022-09-09T02:25:51;15.40;99.90
19928;DHT22;10126;50.876;4.470;2022-09-09T02:27:53;15.30;99.90
19928;DHT22;10126;50.876;4.470;2022-09-09T02:29:56;15.30;99.90
19928;DHT22;10126;50.876;4.470;2022-09-09T02:32:01;15.20;99.90
19928;DHT22;10126;50.876;4.470;2022-09-09T02:34:05;15.20;99.90
19928;DHT22;10126;50.876;4.470;2022-09-09T02:36:11;15.20;99.90
19928;DHT22;10126;50.876;4.470;2022-09-09T02:38:13;15.20;99.90
19928;DHT22;10126;50.876;4.470;2022-09-09T02:40:15;15.30;99.90
19928;DHT22;10126;50.876;4.470;2022-09-09T02:42:16;15.20;99.90
19928;DHT22;10126;50.876;4.470;2022-09-09T02:44:18;15.20;99.90
19928;DHT22;10126;50.876;4.470;2022-09-09T02:51:25;15.20;99.90
19928;DHT22;10126;50.876;4.470;2022-09-09T02:53:43;15.30;99.90
19928;DHT22;10126;50.876;4.470;2022-09-09T02:55:52;15.30;99.90
19928;DHT22;10126;50.876;4.470;2022-09-09T02:57:55;15.10;99.90
19928;DHT22;10126;50.876;4.470;2022-09-09T02:59:58;15.10;99.90
19928;DHT22;10126;50.876;4.470;2022-09-09T03:01:59;15.00;99.90
19928;DHT22;10126;50.876;4.470;2022-09-09T03:03:59;15.10;99.90
19928;DHT22;10126;50.876;4.470;2022-09-09T03:06:00;15.10;99.90
19928;DHT22;10126;50.876;4.470;2022-09-09T03:08:03;15.10;99.90
19928;DHT22;10126;50.876;4.470;2022-09-09T03:10:04;15.10;99.90
19928;DHT22;10126;50.876;4.470;2022-09-09T03:12:05;15.00;99.90
19928;DHT22;10126;50.876;4.470;2022-09-09T03:14:06;15.10;99.90
19928;DHT22;10126;50.876;4.470;2022-09-09T03:16:06;15.00;99.90
19928;DHT22;10126;50.876;4.470;2022-09-09T03:18:07;15.10;99.90
19928;DHT22;10126;50.876;4.470;2022-09-09T03:20:08;15.10;99.90
19928;DHT22;10126;50.876;4.470;2022-09-09T03:22:10;15.20;99.90
19928;DHT22;10126;50.876;4.470;2022-09-09T03:24:12;15.20;99.90
19928;DHT22;10126;50.876;4.470;2022-09-09T03:26:12;15.20;99.90
19928;DHT22;10126;50.876;4.470;2022-09-09T03:28:15;15.20;99.90
19928;DHT22;10126;50.876;4.470;2022-09-09T03:30:16;15.20;99.90
19928;DHT22;10126;50.876;4.470;2022-09-09T03:32:18;15.20;99.90
19928;DHT22;10126;50.876;4.470;2022-09-09T03:34:19;15.20;99.90
19928;DHT22;10126;50.876;4.470;2022-09-09T03:36:19;15.20;99.90
19928;DHT22;10126;50.876;4.470;2022-09-09T03:38:20;15.20;99.90
19928;DHT22;10126;50.876;4.470;2022-09-09T03:40:21;15.20;99.90
19928;DHT22;10126;50.876;4.470;2022-09-09T03:42:22;15.20;99.90
19928;DHT22;10126;50.876;4.470;2022-09-09T03:44:22;15.20;99.90
19928;DHT22;10126;50.876;4.470;2022-09-09T03:46:25;15.20;99.90
19928;DHT22;10126;50.876;4.470;2022-09-09T03:48:26;15.20;99.90
19928;DHT22;10126;50.876;4.470;2022-09-09T03:50:28;15.10;99.90
19928;DHT22;10126;50.876;4.470;2022-09-09T03:52:28;15.20;99.90
19928;DHT22;10126;50.876;4.470;2022-09-09T03:54:29;15.20;99.90
19928;DHT22;10126;50.876;4.470;2022-09-09T03:56:30;15.20;99.90
19928;DHT22;10126;50.876;4.470;2022-09-09T03:58:32;15.20;99.90
19928;DHT22;10126;50.876;4.470;2022-09-09T04:00:33;15.10;99.90
19928;DHT22;10126;50.876;4.470;2022-09-09T04:02:34;15.00;99.90
19928;DHT22;10126;50.876;4.470;2022-09-09T04:04:35;15.00;99.90
19928;DHT22;10126;50.876;4.470;2022-09-09T04:06:35;15.00;99.90
19928;DHT22;10126;50.876;4.470;2022-09-09T04:08:36;15.00;99.90
19928;DHT22;10126;50.876;4.470;2022-09-09T04:10:38;15.00;99.90
19928;DHT22;10126;50.876;4.470;2022-09-09T04:12:39;15.00;99.90
19928;DHT22;10126;50.876;4.470;2022-09-09T04:14:40;15.00;99.90
19928;DHT22;10126;50.876;4.470;2022-09-09T04:16:40;15.10;99.90
19928;DHT22;10126;50.876;4.470;2022-09-09T04:18:44;15.20;99.90
19928;DHT22;10126;50.876;4.470;2022-09-09T04:20:49;15.20;99.90
19928;DHT22;10126;50.876;4.470;2022-09-09T04:22:50;15.20;99.90
19928;DHT22;10126;50.876;4.470;2022-09-09T04:24:51;15.30;99.90
19928;DHT22;10126;50.876;4.470;2022-09-09T04:26:51;15.20;99.90
19928;DHT22;10126;50.876;4.470;2022-09-09T04:28:52;15.20;99.90
19928;DHT22;10126;50.876;4.470;2022-09-09T04:30:53;15.20;99.90
19928;DHT22;10126;50.876;4.470;2022-09-09T04:32:54;15.20;99.90
19928;DHT22;10126;50.876;4.470;2022-09-09T04:34:54;15.20;99.90
19928;DHT22;10126;50.876;4.470;2022-09-09T04:36:55;15.20;99.90
19928;DHT22;10126;50.876;4.470;2022-09-09T04:38:56;15.20;99.90
19928;DHT22;10126;50.876;4.470;2022-09-09T04:40:57;15.20;99.90
19928;DHT22;10126;50.876;4.470;2022-09-09T04:42:59;15.10;99.90
19928;DHT22;10126;50.876;4.470;2022-09-09T04:44:59;15.00;99.90
19928;DHT22;10126;50.876;4.470;2022-09-09T04:47:00;15.10;99.90
19928;DHT22;10126;50.876;4.470;2022-09-09T04:49:01;15.00;99.90
19928;DHT22;10126;50.876;4.470;2022-09-09T04:51:04;15.00;99.90
19928;DHT22;10126;50.876;4.470;2022-09-09T04:53:05;15.00;99.90
19928;DHT22;10126;50.876;4.470;2022-09-09T04:55:07;15.00;99.90
19928;DHT22;10126;50.876;4.470;2022-09-09T04:57:07;14.90;99.90
19928;DHT22;10126;50.876;4.470;2022-09-09T04:59:10;15.00;99.90
19928;DHT22;10126;50.876;4.470;2022-09-09T05:03:11;14.90;99.90
19928;DHT22;10126;50.876;4.470;2022-09-09T05:05:13;15.00;99.90
19928;DHT22;10126;50.876;4.470;2022-09-09T05:07:13;15.00;99.90
19928;DHT22;10126;50.876;4.470;2022-09-09T05:09:14;15.00;99.90
19928;DHT22;10126;50.876;4.470;2022-09-09T05:11:25;15.00;99.90
19928;DHT22;10126;50.876;4.470;2022-09-09T05:13:27;14.90;99.90
19928;DHT22;10126;50.876;4.470;2022-09-09T05:15:28;14.90;99.90
19928;DHT22;10126;50.876;4.470;2022-09-09T05:17:29;15.00;99.90
19928;DHT22;10126;50.876;4.470;2022-09-09T05:19:29;15.10;99.90
19928;DHT22;10126;50.876;4.470;2022-09-09T05:21:31;15.10;99.90
19928;DHT22;10126;50.876;4.470;2022-09-09T05:23:33;15.10;99.90
19928;DHT22;10126;50.876;4.470;2022-09-09T05:25:34;15.10;99.90
19928;DHT22;10126;50.876;4.470;2022-09-09T05:27:35;15.10;99.90
19928;DHT22;10126;50.876;4.470;2022-09-09T05:29:35;15.10;99.90
19928;DHT22;10126;50.876;4.470;2022-09-09T05:31:36;15.10;99.90
19928;DHT22;10126;50.876;4.470;2022-09-09T05:33:37;15.20;99.90
19928;DHT22;10126;50.876;4.470;2022-09-09T05:35:40;15.40;99.90
19928;DHT22;10126;50.876;4.470;2022-09-09T05:37:41;15.50;99.90
19928;DHT22;10126;50.876;4.470;2022-09-09T05:39:42;15.60;99.90
19928;DHT22;10126;50.876;4.470;2022-09-09T05:41:42;15.70;99.90
19928;DHT22;10126;50.876;4.470;2022-09-09T05:43:44;15.90;99.90
19928;DHT22;10126;50.876;4.470;2022-09-09T05:45:45;16.00;99.90
19928;DHT22;10126;50.876;4.470;2022-09-09T05:47:51;16.20;99.90
19928;DHT22;10126;50.876;4.470;2022-09-09T05:49:54;16.10;99.90
19928;DHT22;10126;50.876;4.470;2022-09-09T05:51:55;16.20;99.90
19928;DHT22;10126;50.876;4.470;2022-09-09T05:53:56;16.10;99.90
19928;DHT22;10126;50.876;4.470;2022-09-09T05:56:04;16.20;99.90
19928;DHT22;10126;50.876;4.470;2022-09-09T05:58:05;16.00;99.90
19928;DHT22;10126;50.876;4.470;2022-09-09T06:00:06;16.00;99.90
19928;DHT22;10126;50.876;4.470;2022-09-09T06:02:08;16.10;99.90
19928;DHT22;10126;50.876;4.470;2022-09-09T06:04:09;16.20;99.90
19928;DHT22;10126;50.876;4.470;2022-09-09T06:06:12;16.40;99.90
19928;DHT22;10126;50.876;4.470;2022-09-09T06:08:13;16.30;99.90
19928;DHT22;10126;50.876;4.470;2022-09-09T06:10:14;16.60;99.90
19928;DHT22;10126;50.876;4.470;2022-09-09T06:12:15;17.10;99.90
19928;DHT22;10126;50.876;4.470;2022-09-09T06:14:15;17.40;99.90
19928;DHT22;10126;50.876;4.470;2022-09-09T06:16:19;18.10;99.90
19928;DHT22;10126;50.876;4.470;2022-09-09T06:18:20;18.70;99.90
19928;DHT22;10126;50.876;4.470;2022-09-09T06:20:21;18.70;99.90
19928;DHT22;10126;50.876;4.470;2022-09-09T06:32:58;18.50;99.90
19928;DHT22;10126;50.876;4.470;2022-09-09T06:34:58;18.30;99.90
19928;DHT22;10126;50.876;4.470;2022-09-09T06:37:01;18.90;99.90
19928;DHT22;10126;50.876;4.470;2022-09-09T06:39:02;18.90;99.90
19928;DHT22;10126;50.876;4.470;2022-09-09T06:41:03;18.80;99.90
19928;DHT22;10126;50.876;4.470;2022-09-09T06:43:06;18.50;99.90
19928;DHT22;10126;50.876;4.470;2022-09-09T06:45:07;18.30;99.90
19928;DHT22;10126;50.876;4.470;2022-09-09T06:47:07;18.10;99.90
19928;DHT22;10126;50.876;4.470;2022-09-09T06:49:09;17.90;99.90
19928;DHT22;10126;50.876;4.470;2022-09-09T06:51:20;17.70;99.90
19928;DHT22;10126;50.876;4.470;2022-09-09T06:53:23;17.50;99.90
19928;DHT22;10126;50.876;4.470;2022-09-09T06:55:24;17.20;99.90
19928;DHT22;10126;50.876;4.470;2022-09-09T06:57:25;17.20;99.90
19928;DHT22;10126;50.876;4.470;2022-09-09T06:59:25;17.30;99.90
19928;DHT22;10126;50.876;4.470;2022-09-09T07:01:29;17.40;99.90
19928;DHT22;10126;50.876;4.470;2022-09-09T07:03:31;17.40;99.90
19928;DHT22;10126;50.876;4.470;2022-09-09T07:05:32;17.30;99.90
19928;DHT22;10126;50.876;4.470;2022-09-09T07:07:32;17.20;99.90
19928;DHT22;10126;50.876;4.470;2022-09-09T07:09:33;17.10;99.90
19928;DHT22;10126;50.876;4.470;2022-09-09T07:11:42;17.10;99.90
19928;DHT22;10126;50.876;4.470;2022-09-09T07:13:43;17.30;99.90
19928;DHT22;10126;50.876;4.470;2022-09-09T07:15:43;17.30;99.90
19928;DHT22;10126;50.876;4.470;2022-09-09T07:17:44;17.30;99.90
19928;DHT22;10126;50.876;4.470;2022-09-09T07:19:45;17.40;99.90
19928;DHT22;10126;50.876;4.470;2022-09-09T07:21:45;17.60;99.90
19928;DHT22;10126;50.876;4.470;2022-09-09T07:23:46;17.80;99.90
19928;DHT22;10126;50.876;4.470;2022-09-09T07:25:46;17.70;99.90
19928;DHT22;10126;50.876;4.470;2022-09-09T07:27:47;17.70;99.90
19928;DHT22;10126;50.876;4.470;2022-09-09T07:29:48;17.80;99.90
19928;DHT22;10126;50.876;4.470;2022-09-09T07:31:49;17.70;99.90
19928;DHT22;10126;50.876;4.470;2022-09-09T07:33:50;17.60;99.90
19928;DHT22;10126;50.876;4.470;2022-09-09T07:35:51;17.60;99.90
19928;DHT22;10126;50.876;4.470;2022-09-09T07:37:51;17.60;99.90
19928;DHT22;10126;50.876;4.470;2022-09-09T07:39:52;17.40;99.90
19928;DHT22;10126;50.876;4.470;2022-09-09T07:41:53;17.30;99.90
19928;DHT22;10126;50.876;4.470;2022-09-09T07:43:54;17.30;99.90
19928;DHT22;10126;50.876;4.470;2022-09-09T07:45:59;17.40;99.90
19928;DHT22;10126;50.876;4.470;2022-09-09T07:48:02;17.40;99.90
19928;DHT22;10126;50.876;4.470;2022-09-09T07:50:02;17.50;99.90
19928;DHT22;10126;50.876;4.470;2022-09-09T07:52:03;17.60;99.90
19928;DHT22;10126;50.876;4.470;2022-09-09T07:54:07;17.60;99.90
19928;DHT22;10126;50.876;4.470;2022-09-09T07:56:12;17.60;99.90
19928;DHT22;10126;50.876;4.470;2022-09-09T07:58:13;17.60;99.90
19928;DHT22;10126;50.876;4.470;2022-09-09T08:00:14;17.40;99.90
19928;DHT22;10126;50.876;4.470;2022-09-09T08:02:15;17.30;99.90
19928;DHT22;10126;50.876;4.470;2022-09-09T08:04:17;17.40;99.90
19928;DHT22;10126;50.876;4.470;2022-09-09T08:06:18;17.40;99.90
19928;DHT22;10126;50.876;4.470;2022-09-09T08:08:19;17.60;99.90
19928;DHT22;10126;50.876;4.470;2022-09-09T08:10:20;17.60;99.90
19928;DHT22;10126;50.876;4.470;2022-09-09T08:12:20;17.80;99.90
19928;DHT22;10126;50.876;4.470;2022-09-09T08:14:21;18.00;99.90
19928;DHT22;10126;50.876;4.470;2022-09-09T08:16:25;18.30;99.90
19928;DHT22;10126;50.876;4.470;2022-09-09T08:18:26;18.70;99.90
19928;DHT22;10126;50.876;4.470;2022-09-09T08:20:28;19.20;99.90
19928;DHT22;10126;50.876;4.470;2022-09-09T08:22:29;19.70;99.90
19928;DHT22;10126;50.876;4.470;2022-09-09T08:24:29;19.80;99.90
19928;DHT22;10126;50.876;4.470;2022-09-09T08:26:33;20.00;99.90
19928;DHT22;10126;50.876;4.470;2022-09-09T08:28:34;20.10;99.90
19928;DHT22;10126;50.876;4.470;2022-09-09T08:30:35;19.80;99.90
19928;DHT22;10126;50.876;4.470;2022-09-09T08:32:35;19.60;99.90
19928;DHT22;10126;50.876;4.470;2022-09-09T08:34:36;19.50;99.90
19928;DHT22;10126;50.876;4.470;2022-09-09T08:36:39;19.20;99.90
19928;DHT22;10126;50.876;4.470;2022-09-09T08:38:43;19.00;99.90
19928;DHT22;10126;50.876;4.470;2022-09-09T08:40:45;18.70;99.90
19928;DHT22;10126;50.876;4.470;2022-09-09T08:42:52;18.70;99.90
19928;DHT22;10126;50.876;4.470;2022-09-09T08:45:12;18.60;99.90
19928;DHT22;10126;50.876;4.470;2022-09-09T08:49:29;18.70;99.90
19928;DHT22;10126;50.876;4.470;2022-09-09T08:51:35;18.70;99.90
19928;DHT22;10126;50.876;4.470;2022-09-09T08:53:46;18.80;99.90
19928;DHT22;10126;50.876;4.470;2022-09-09T08:55:59;18.80;99.90
19928;DHT22;10126;50.876;4.470;2022-09-09T09:00:18;18.40;99.90
19928;DHT22;10126;50.876;4.470;2022-09-09T09:10:57;18.40;99.90
19928;DHT22;10126;50.876;4.470;2022-09-09T09:13:01;18.50;99.90
19928;DHT22;10126;50.876;4.470;2022-09-09T09:15:02;18.40;99.90
19928;DHT22;10126;50.876;4.470;2022-09-09T09:17:14;18.50;99.90
19928;DHT22;10126;50.876;4.470;2022-09-09T09:19:16;18.40;99.90
19928;DHT22;10126;50.876;4.470;2022-09-09T09:23:25;18.00;99.90
19928;DHT22;10126;50.876;4.470;2022-09-09T09:25:32;18.10;99.90
19928;DHT22;10126;50.876;4.470;2022-09-09T09:29:40;18.20;99.90
19928;DHT22;10126;50.876;4.470;2022-09-09T09:31:55;18.10;99.90
19928;DHT22;10126;50.876;4.470;2022-09-09T09:33:57;17.80;99.90
19928;DHT22;10126;50.876;4.470;2022-09-09T09:35:58;17.80;99.90
19928;DHT22;10126;50.876;4.470;2022-09-09T09:38:00;17.80;99.90
19928;DHT22;10126;50.876;4.470;2022-09-09T09:40:19;17.90;99.90
19928;DHT22;10126;50.876;4.470;2022-09-09T09:42:20;17.80;99.90
19928;DHT22;10126;50.876;4.470;2022-09-09T09:46:24;17.80;99.90
19928;DHT22;10126;50.876;4.470;2022-09-09T09:48:27;17.80;99.90
19928;DHT22;10126;50.876;4.470;2022-09-09T09:50:28;17.70;99.90
19928;DHT22;10126;50.876;4.470;2022-09-09T09:52:31;17.70;99.90
19928;DHT22;10126;50.876;4.470;2022-09-09T09:54:41;17.80;99.90
19928;DHT22;10126;50.876;4.470;2022-09-09T09:56:43;17.80;99.90
19928;DHT22;10126;50.876;4.470;2022-09-09T10:00:49;18.00;99.90
19928;DHT22;10126;50.876;4.470;2022-09-09T10:02:50;17.80;99.90
19928;DHT22;10126;50.876;4.470;2022-09-09T10:05:20;17.80;99.90
19928;DHT22;10126;50.876;4.470;2022-09-09T10:07:22;17.80;99.90
19928;DHT22;10126;50.876;4.470;2022-09-09T10:09:28;17.70;99.90
19928;DHT22;10126;50.876;4.470;2022-09-09T10:18:57;18.20;99.90
19928;DHT22;10126;50.876;4.470;2022-09-09T10:21:03;18.30;99.90
19928;DHT22;10126;50.876;4.470;2022-09-09T10:25:31;18.40;99.90
19928;DHT22;10126;50.876;4.470;2022-09-09T10:30:09;18.10;99.90
19928;DHT22;10126;50.876;4.470;2022-09-09T10:32:45;18.20;99.90
19928;DHT22;10126;50.876;4.470;2022-09-09T10:34:54;18.40;99.90
19928;DHT22;10126;50.876;4.470;2022-09-09T10:36:55;18.40;99.90
19928;DHT22;10126;50.876;4.470;2022-09-09T10:39:05;18.50;99.90
19928;DHT22;10126;50.876;4.470;2022-09-09T10:41:18;18.50;99.90
19928;DHT22;10126;50.876;4.470;2022-09-09T10:48:14;19.50;99.90
19928;DHT22;10126;50.876;4.470;2022-09-09T10:55:17;19.90;99.90
19928;DHT22;10126;50.876;4.470;2022-09-09T10:57:33;20.00;99.90
19928;DHT22;10126;50.876;4.470;2022-09-09T10:59:45;20.20;99.90
19928;DHT22;10126;50.876;4.470;2022-09-09T11:04:42;20.30;99.90
19928;DHT22;10126;50.876;4.470;2022-09-09T11:06:19;20.20;99.90
19928;DHT22;10126;50.876;4.470;2022-09-09T11:08:24;20.10;99.90
19928;DHT22;10126;50.876;4.470;2022-09-09T11:12:43;20.40;99.90
19928;DHT22;10126;50.876;4.470;2022-09-09T11:14:50;20.70;99.90
19928;DHT22;10126;50.876;4.470;2022-09-09T11:16:58;20.60;99.90
19928;DHT22;10126;50.876;4.470;2022-09-09T11:21:26;20.80;99.90
19928;DHT22;10126;50.876;4.470;2022-09-09T11:23:39;20.60;99.90
19928;DHT22;10126;50.876;4.470;2022-09-09T11:25:50;20.50;99.90
19928;DHT22;10126;50.876;4.470;2022-09-09T11:41:53;20.20;99.90
19928;DHT22;10126;50.876;4.470;2022-09-09T11:43:54;20.20;99.90
19928;DHT22;10126;50.876;4.470;2022-09-09T11:45:57;20.00;99.90
19928;DHT22;10126;50.876;4.470;2022-09-09T11:48:00;20.20;99.90
19928;DHT22;10126;50.876;4.470;2022-09-09T11:54:46;20.20;99.90
19928;DHT22;10126;50.876;4.470;2022-09-09T11:56:48;20.30;99.90
19928;DHT22;10126;50.876;4.470;2022-09-09T11:59:03;20.00;99.90
19928;DHT22;10126;50.876;4.470;2022-09-09T12:01:24;20.10;99.90
19928;DHT22;10126;50.876;4.470;2022-09-09T12:05:41;20.00;99.90
19928;DHT22;10126;50.876;4.470;2022-09-09T12:07:51;20.20;99.90
19928;DHT22;10126;50.876;4.470;2022-09-09T12:10:20;20.40;99.90
19928;DHT22;10126;50.876;4.470;2022-09-09T12:12:24;20.60;99.90
19928;DHT22;10126;50.876;4.470;2022-09-09T12:14:43;20.40;99.90
19928;DHT22;10126;50.876;4.470;2022-09-09T12:16:44;20.50;99.90
19928;DHT22;10126;50.876;4.470;2022-09-09T12:18:44;20.50;99.90
19928;DHT22;10126;50.876;4.470;2022-09-09T12:21:15;20.50;99.90
19928;DHT22;10126;50.876;4.470;2022-09-09T12:27:52;19.90;99.90
19928;DHT22;10126;50.876;4.470;2022-09-09T12:30:10;19.90;99.90
19928;DHT22;10126;50.876;4.470;2022-09-09T12:32:15;19.80;99.90
19928;DHT22;10126;50.876;4.470;2022-09-09T12:36:37;19.80;99.90
19928;DHT22;10126;50.876;4.470;2022-09-09T12:38:40;19.80;99.90
19928;DHT22;10126;50.876;4.470;2022-09-09T12:40:41;19.80;99.90
19928;DHT22;10126;50.876;4.470;2022-09-09T12:42:41;20.00;99.90
19928;DHT22;10126;50.876;4.470;2022-09-09T12:44:51;20.20;99.90
19928;DHT22;10126;50.876;4.470;2022-09-09T12:46:52;20.40;99.90
19928;DHT22;10126;50.876;4.470;2022-09-09T12:48:54;20.40;99.90
19928;DHT22;10126;50.876;4.470;2022-09-09T12:50:55;20.60;99.90
19928;DHT22;10126;50.876;4.470;2022-09-09T12:53:01;20.70;99.90
19928;DHT22;10126;50.876;4.470;2022-09-09T12:55:04;20.80;99.90
19928;DHT22;10126;50.876;4.470;2022-09-09T12:57:08;20.70;99.90
19928;DHT22;10126;50.876;4.470;2022-09-09T12:59:23;20.70;99.90
19928;DHT22;10126;50.876;4.470;2022-09-09T13:01:26;20.80;99.90
19928;DHT22;10126;50.876;4.470;2022-09-09T13:03:28;20.90;99.90
19928;DHT22;10126;50.876;4.470;2022-09-09T13:05:37;20.80;99.90
19928;DHT22;10126;50.876;4.470;2022-09-09T13:07:39;21.10;99.90
19928;DHT22;10126;50.876;4.470;2022-09-09T13:09:40;21.30;99.90
19928;DHT22;10126;50.876;4.470;2022-09-09T13:11:50;21.40;99.90
19928;DHT22;10126;50.876;4.470;2022-09-09T13:13:54;21.40;99.90
19928;DHT22;10126;50.876;4.470;2022-09-09T13:15:58;21.30;99.90
19928;DHT22;10126;50.876;4.470;2022-09-09T13:18:06;21.30;99.90
19928;DHT22;10126;50.876;4.470;2022-09-09T13:20:18;21.10;99.90
19928;DHT22;10126;50.876;4.470;2022-09-09T13:22:30;21.10;99.90
19928;DHT22;10126;50.876;4.470;2022-09-09T13:24:34;21.30;99.90
19928;DHT22;10126;50.876;4.470;2022-09-09T13:26:35;21.40;99.90
19928;DHT22;10126;50.876;4.470;2022-09-09T13:28:35;21.30;99.90
19928;DHT22;10126;50.876;4.470;2022-09-09T13:30:37;21.20;99.90
19928;DHT22;10126;50.876;4.470;2022-09-09T13:32:41;20.90;99.90
19928;DHT22;10126;50.876;4.470;2022-09-09T13:34:53;20.80;99.90
19928;DHT22;10126;50.876;4.470;2022-09-09T13:36:59;20.90;99.90
19928;DHT22;10126;50.876;4.470;2022-09-09T13:39:03;20.90;99.90
19928;DHT22;10126;50.876;4.470;2022-09-09T13:41:09;20.80;99.90
19928;DHT22;10126;50.876;4.470;2022-09-09T13:43:18;21.00;99.90
19928;DHT22;10126;50.876;4.470;2022-09-09T13:45:24;21.20;99.90
19928;DHT22;10126;50.876;4.470;2022-09-09T13:47:35;21.20;99.90
19928;DHT22;10126;50.876;4.470;2022-09-09T13:49:36;21.40;99.90
19928;DHT22;10126;50.876;4.470;2022-09-09T13:51:44;21.40;99.90
19928;DHT22;10126;50.876;4.470;2022-09-09T13:53:46;21.50;99.90
19928;DHT22;10126;50.876;4.470;2022-09-09T13:55:48;21.40;99.90
19928;DHT22;10126;50.876;4.470;2022-09-09T13:57:53;21.70;99.90
19928;DHT22;10126;50.876;4.470;2022-09-09T13:59:54;21.90;99.90
19928;DHT22;10126;50.876;4.470;2022-09-09T14:01:58;22.10;99.90
19928;DHT22;10126;50.876;4.470;2022-09-09T14:03:58;22.40;99.90
19928;DHT22;10126;50.876;4.470;2022-09-09T14:05:59;22.60;99.90
19928;DHT22;10126;50.876;4.470;2022-09-09T14:08:00;22.80;99.90
19928;DHT22;10126;50.876;4.470;2022-09-09T14:10:01;22.20;99.90
19928;DHT22;10126;50.876;4.470;2022-09-09T14:12:02;22.30;99.90
19928;DHT22;10126;50.876;4.470;2022-09-09T14:14:03;22.20;99.90
19928;DHT22;10126;50.876;4.470;2022-09-09T14:16:03;22.20;99.90
19928;DHT22;10126;50.876;4.470;2022-09-09T14:18:04;22.40;99.90
19928;DHT22;10126;50.876;4.470;2022-09-09T14:20:06;22.40;99.90
19928;DHT22;10126;50.876;4.470;2022-09-09T14:22:09;22.30;99.90
19928;DHT22;10126;50.876;4.470;2022-09-09T14:24:10;22.10;99.90
19928;DHT22;10126;50.876;4.470;2022-09-09T14:26:10;22.10;99.90
19928;DHT22;10126;50.876;4.470;2022-09-09T14:28:13;22.00;99.90
19928;DHT22;10126;50.876;4.470;2022-09-09T14:30:13;21.90;99.90
19928;DHT22;10126;50.876;4.470;2022-09-09T14:32:14;21.80;99.90
19928;DHT22;10126;50.876;4.470;2022-09-09T14:34:15;21.90;99.90
19928;DHT22;10126;50.876;4.470;2022-09-09T14:36:15;21.80;99.90
19928;DHT22;10126;50.876;4.470;2022-09-09T14:38:16;21.80;99.90
19928;DHT22;10126;50.876;4.470;2022-09-09T14:40:16;21.60;99.90
19928;DHT22;10126;50.876;4.470;2022-09-09T14:42:18;21.50;99.90
19928;DHT22;10126;50.876;4.470;2022-09-09T14:44:19;21.60;99.90
19928;DHT22;10126;50.876;4.470;2022-09-09T14:46:20;21.70;99.90
19928;DHT22;10126;50.876;4.470;2022-09-09T14:48:21;21.80;99.90
19928;DHT22;10126;50.876;4.470;2022-09-09T14:50:22;21.40;99.90
19928;DHT22;10126;50.876;4.470;2022-09-09T14:52:23;21.40;99.90
19928;DHT22;10126;50.876;4.470;2022-09-09T14:54:24;21.30;99.90
19928;DHT22;10126;50.876;4.470;2022-09-09T14:56:27;21.30;99.90
19928;DHT22;10126;50.876;4.470;2022-09-09T14:58:30;21.40;99.90
19928;DHT22;10126;50.876;4.470;2022-09-09T15:00:31;21.40;99.90
19928;DHT22;10126;50.876;4.470;2022-09-09T15:02:32;21.50;99.90
19928;DHT22;10126;50.876;4.470;2022-09-09T15:04:33;21.60;99.90
19928;DHT22;10126;50.876;4.470;2022-09-09T15:06:35;21.50;99.90